createdAt,value
2022-10-17T00:00:29.447Z,71.04
2022-10-17T00:02:58.338Z,71.04
2022-10-17T00:05:27.618Z,71.01
2022-10-17T00:07:56.772Z,71.05
2022-10-17T00:10:28.502Z,71.21
2022-10-17T00:12:57.981Z,71.24
2022-10-17T00:15:28.444Z,71.29
2022-10-17T00:17:58.776Z,71.29
2022-10-17T00:20:32.411Z,71.32
2022-10-17T00:23:04.236Z,71.47
2022-10-17T00:25:34.306Z,71.61
2022-10-17T00:28:03.522Z,71.79
2022-10-17T00:30:35.722Z,71.91
2022-10-17T00:33:04.726Z,72.11
2022-10-17T00:35:36.466Z,72.13
2022-10-17T00:38:05.944Z,72.22
2022-10-17T00:40:34.731Z,72.28
2022-10-17T00:43:04.567Z,72.29
2022-10-17T00:45:33.777Z,72.38
2022-10-17T00:48:05.635Z,72.32
2022-10-17T00:50:36.271Z,72.39
2022-10-17T00:53:06.142Z,72.43
2022-10-17T00:55:39.191Z,72.41
2022-10-17T00:58:08.706Z,72.53
2022-10-17T01:00:37.739Z,72.46
2022-10-17T01:03:06.708Z,72.33
2022-10-17T01:05:37.480Z,72.18
2022-10-17T01:08:07.741Z,72.04
2022-10-17T01:11:06.621Z,71.96
2022-10-17T01:14:04.297Z,71.87
2022-10-17T01:16:50.505Z,71.75
2022-10-17T01:19:51.543Z,71.58
2022-10-17T01:22:39.945Z,71.31
2022-10-17T01:25:43.733Z,71.00
2022-10-17T01:28:40.278Z,70.71
2022-10-17T01:31:20.179Z,70.46
2022-10-17T01:34:09.468Z,70.42
2022-10-17T01:37:07.619Z,70.34
2022-10-17T01:39:54.865Z,70.21
2022-10-17T01:42:38.032Z,69.99
2022-10-17T01:45:18.095Z,69.71
2022-10-17T01:47:49.667Z,69.50
2022-10-17T01:50:39.678Z,69.27
2022-10-17T01:53:13.721Z,69.04
2022-10-17T01:55:46.873Z,68.82
2022-10-17T01:58:34.012Z,68.72
2022-10-17T02:01:06.776Z,68.68
2022-10-17T02:03:37.409Z,68.65
2022-10-17T02:06:08.238Z,68.78
2022-10-17T02:08:49.259Z,68.94
2022-10-17T02:11:24.439Z,69.01
2022-10-17T02:14:29.192Z,69.21
2022-10-17T02:17:15.832Z,69.23
2022-10-17T02:20:13.641Z,69.37
2022-10-17T02:22:56.200Z,69.43
2022-10-17T02:25:45.578Z,69.44
2022-10-17T02:28:22.449Z,69.46
2022-10-17T02:30:57.427Z,69.35
2022-10-17T02:33:37.447Z,69.16
2022-10-17T02:36:14.345Z,69.09
2022-10-17T02:38:43.979Z,68.95
2022-10-17T02:41:16.714Z,68.78
2022-10-17T02:43:47.536Z,68.55
2022-10-17T02:46:21.083Z,68.46
2022-10-17T02:48:57.783Z,68.35
2022-10-17T02:51:43.294Z,68.19
2022-10-17T02:54:27.009Z,68.01
2022-10-17T02:57:03.711Z,67.90
2022-10-17T03:02:05.374Z,67.71
2022-10-17T03:04:36.983Z,67.64
2022-10-17T03:07:06.456Z,67.56
2022-10-17T03:09:37.150Z,67.50
2022-10-17T03:12:08.133Z,67.47
2022-10-17T03:14:38.938Z,67.48
2022-10-17T03:17:09.531Z,67.40
2022-10-17T03:19:39.289Z,67.35
2022-10-17T03:22:08.615Z,67.39
2022-10-17T03:24:39.558Z,67.52
2022-10-17T03:27:08.399Z,67.69
2022-10-17T03:29:40.711Z,67.90
2022-10-17T03:32:11.722Z,68.12
2022-10-17T03:34:42.321Z,68.45
2022-10-17T03:37:11.816Z,68.81
2022-10-17T03:39:42.227Z,69.18
2022-10-17T03:42:11.937Z,69.48
2022-10-17T03:44:41.146Z,69.74
2022-10-17T03:47:13.387Z,70.08
2022-10-17T03:49:42.015Z,70.33
2022-10-17T03:52:14.445Z,70.64
2022-10-17T03:54:43.510Z,70.83
2022-10-17T03:57:13.235Z,70.96
2022-10-17T03:59:43.343Z,71.18
2022-10-17T04:02:15.434Z,71.39
2022-10-17T04:04:46.964Z,71.57
2022-10-17T04:07:16.800Z,71.77
2022-10-17T04:09:49.252Z,71.80
2022-10-17T04:12:23.305Z,71.93
2022-10-17T04:14:52.345Z,72.12
2022-10-17T04:17:24.293Z,72.24
2022-10-17T04:19:53.804Z,72.29
2022-10-17T04:22:25.432Z,72.46
2022-10-17T04:24:55.991Z,72.58
2022-10-17T04:27:29.735Z,72.70
2022-10-17T04:29:59.915Z,72.75
2022-10-17T04:32:29.608Z,72.89
2022-10-17T04:35:00.841Z,73.03
2022-10-17T04:37:30.375Z,73.01
2022-10-17T04:40:01.437Z,73.15
2022-10-17T04:42:34.835Z,73.42
2022-10-17T04:45:05.492Z,73.65
2022-10-17T04:47:35.236Z,73.78
2022-10-17T04:50:05.392Z,73.80
2022-10-17T04:52:39.512Z,73.83
2022-10-17T04:55:10.659Z,73.90
2022-10-17T04:57:40.388Z,73.97
2022-10-17T05:00:13.147Z,74.08
2022-10-17T05:02:50.524Z,74.14
2022-10-17T05:05:20.962Z,74.16
2022-10-17T05:07:54.452Z,74.28
2022-10-17T05:10:26.562Z,74.37
2022-10-17T05:12:56.768Z,74.38
2022-10-17T05:15:30.163Z,74.31
2022-10-17T05:18:00.504Z,74.33
2022-10-17T05:20:29.564Z,74.38
2022-10-17T05:23:03.257Z,74.34
2022-10-17T05:25:35.218Z,74.18
2022-10-17T05:28:06.033Z,74.05
2022-10-17T05:30:37.572Z,73.89
2022-10-17T05:33:11.121Z,73.72
2022-10-17T05:35:42.063Z,73.49
2022-10-17T05:38:12.616Z,73.23
2022-10-17T05:40:44.848Z,72.95
2022-10-17T05:43:15.944Z,72.72
2022-10-17T05:45:45.903Z,72.51
2022-10-17T05:48:17.824Z,72.34
2022-10-17T05:50:49.239Z,72.02
2022-10-17T05:53:18.580Z,71.70
2022-10-17T05:55:59.435Z,71.46
2022-10-17T05:58:49.146Z,71.23
2022-10-17T06:01:05.530Z,70.90
2022-10-17T06:03:35.670Z,70.58
2022-10-17T06:06:08.747Z,70.29
2022-10-17T06:08:39.819Z,70.10
2022-10-17T06:11:12.821Z,69.89
2022-10-17T06:13:43.502Z,69.62
2022-10-17T06:16:15.358Z,69.39
2022-10-17T06:18:46.306Z,69.12
2022-10-17T06:21:18.965Z,68.90
2022-10-17T06:23:49.407Z,68.79
2022-10-17T06:26:21.035Z,68.69
2022-10-17T06:28:50.283Z,68.49
2022-10-17T06:31:21.105Z,68.30
2022-10-17T06:33:51.075Z,68.24
2022-10-17T06:36:22.847Z,68.06
2022-10-17T06:38:54.374Z,67.93
2022-10-17T06:41:25.828Z,67.65
2022-10-17T06:43:57.041Z,67.31
2022-10-17T06:46:41.942Z,67.09
2022-10-17T06:49:13.751Z,66.60
2022-10-17T06:51:45.659Z,66.04
2022-10-17T06:54:18.077Z,65.60
2022-10-17T06:57:06.326Z,65.16
2022-10-17T06:59:57.339Z,64.57
2022-10-17T07:02:29.568Z,64.15
2022-10-17T07:05:01.251Z,63.69
2022-10-17T07:07:32.391Z,63.19
2022-10-17T07:10:04.012Z,62.74
2022-10-17T07:12:41.411Z,62.26
2022-10-17T07:15:12.899Z,61.80
2022-10-17T07:17:42.785Z,61.54
2022-10-17T07:20:13.983Z,61.39
2022-10-17T07:22:45.811Z,60.94
2022-10-17T07:25:16.097Z,60.65
2022-10-17T07:27:50.128Z,60.08
2022-10-17T07:30:20.503Z,59.69
2022-10-17T07:32:56.589Z,59.50
2022-10-17T07:35:26.634Z,59.24
2022-10-17T07:37:57.724Z,59.07
2022-10-17T07:40:27.064Z,59.02
2022-10-17T07:42:57.544Z,58.44
2022-10-17T07:45:27.955Z,57.79
2022-10-17T07:47:58.927Z,56.70
2022-10-17T07:50:29.066Z,54.14
2022-10-17T07:52:58.222Z,52.20
2022-10-17T07:55:27.159Z,51.00
2022-10-17T07:58:00.459Z,49.68
2022-10-17T08:00:29.729Z,48.37
2022-10-17T08:03:00.469Z,47.32
2022-10-17T08:05:29.879Z,46.39
2022-10-17T08:07:59.937Z,45.47
2022-10-17T08:10:30.867Z,45.01
2022-10-17T08:13:00.307Z,44.13
2022-10-17T08:15:32.052Z,43.69
2022-10-17T08:18:01.766Z,42.92
2022-10-17T08:20:34.277Z,42.01
2022-10-17T08:23:05.472Z,41.93
2022-10-17T08:25:34.657Z,41.78
2022-10-17T08:28:04.813Z,41.06
2022-10-17T08:30:34.780Z,41.19
2022-10-17T08:33:05.438Z,41.59
2022-10-17T08:35:34.678Z,41.58
2022-10-17T08:38:04.148Z,41.58
2022-10-17T08:40:34.144Z,41.49
2022-10-17T08:43:20.774Z,41.86
2022-10-17T08:46:00.137Z,41.86
2022-10-17T08:48:32.721Z,42.25
2022-10-17T08:51:16.288Z,42.40
2022-10-17T08:54:17.848Z,42.68
2022-10-17T08:56:55.433Z,42.83
2022-10-17T08:59:30.315Z,42.83
2022-10-17T09:02:34.492Z,43.15
2022-10-17T09:05:36.518Z,43.10
2022-10-17T09:08:16.647Z,43.63
2022-10-17T09:11:02.693Z,43.85
2022-10-17T09:14:02.717Z,44.10
2022-10-17T09:17:14.343Z,44.17
2022-10-17T09:20:05.290Z,44.48
2022-10-17T09:22:46.964Z,44.59
2022-10-17T09:25:19.074Z,44.50
2022-10-17T09:28:08.546Z,44.63
2022-10-17T09:30:47.245Z,44.51
2022-10-17T09:33:35.093Z,44.41
2022-10-17T09:36:01.018Z,44.38
2022-10-17T09:38:40.224Z,44.52
2022-10-17T09:43:59.588Z,44.53
2022-10-17T09:46:37.589Z,44.34
2022-10-17T09:49:17.530Z,44.22
2022-10-17T09:51:47.080Z,44.20
2022-10-17T09:54:26.709Z,44.29
2022-10-17T09:57:05.779Z,43.92
2022-10-17T09:59:38.137Z,43.72
2022-10-17T10:02:17.500Z,43.55
2022-10-17T10:05:07.073Z,43.47
2022-10-17T10:07:39.870Z,43.34
2022-10-17T10:10:24.067Z,43.02
2022-10-17T10:13:07.410Z,43.21
2022-10-17T10:15:40.866Z,43.25
2022-10-17T10:18:33.478Z,43.05
2022-10-17T10:21:10.639Z,43.12
2022-10-17T10:23:43.399Z,43.07
2022-10-17T10:26:24.438Z,43.27
2022-10-17T10:29:03.179Z,42.94
2022-10-17T10:31:40.514Z,42.48
2022-10-17T10:34:28.662Z,42.34
2022-10-17T10:37:07.265Z,42.35
2022-10-17T10:39:44.254Z,42.44
2022-10-17T10:42:35.734Z,42.61
2022-10-17T10:48:02.840Z,42.52
2022-10-17T10:50:45.049Z,42.47
2022-10-17T10:53:41.930Z,42.47
2022-10-17T10:56:25.855Z,42.30
2022-10-17T10:59:19.754Z,42.28
2022-10-17T11:02:30.691Z,42.27
2022-10-17T11:05:20.345Z,41.82
2022-10-17T11:08:09.454Z,41.71
2022-10-17T11:11:13.387Z,41.17
2022-10-17T11:13:53.368Z,40.13
2022-10-17T11:16:42.846Z,39.91
2022-10-17T11:19:36.139Z,39.88
2022-10-17T11:22:25.281Z,39.70
2022-10-17T11:25:16.694Z,39.67
2022-10-17T11:27:47.084Z,39.46
2022-10-17T11:30:16.567Z,39.21
2022-10-17T11:32:50.621Z,39.04
2022-10-17T11:35:33.011Z,38.94
2022-10-17T11:38:23.114Z,38.90
2022-10-17T11:40:56.409Z,38.83
2022-10-17T11:43:35.804Z,38.91
2022-10-17T11:46:19.434Z,38.27
2022-10-17T11:48:59.865Z,38.23
2022-10-17T11:54:16.193Z,38.44
2022-10-17T11:56:52.976Z,38.54
2022-10-17T11:59:45.570Z,38.04
2022-10-17T12:02:40.946Z,38.01
2022-10-17T12:05:27.968Z,38.21
2022-10-17T12:08:20.970Z,38.09
2022-10-17T12:11:03.141Z,38.04
2022-10-17T12:13:40.416Z,38.22
2022-10-17T12:16:21.517Z,38.22
2022-10-17T12:19:23.539Z,38.42
2022-10-17T12:22:03.617Z,38.31
2022-10-17T12:24:49.450Z,38.37
2022-10-17T12:27:41.749Z,38.46
2022-10-17T12:30:24.315Z,38.69
2022-10-17T12:33:22.828Z,38.43
2022-10-17T12:36:12.499Z,38.61
2022-10-17T12:38:42.191Z,38.83
2022-10-17T12:41:12.288Z,38.90
2022-10-17T12:43:53.087Z,38.80
2022-10-17T12:46:43.985Z,38.82
2022-10-17T12:49:45.661Z,38.91
2022-10-17T12:52:36.460Z,39.06
2022-10-17T12:55:13.944Z,39.25
2022-10-17T12:57:57.193Z,39.01
2022-10-17T13:01:05.197Z,38.83
2022-10-17T13:03:22.235Z,38.74
2022-10-17T13:05:58.066Z,38.52
2022-10-17T13:08:32.104Z,38.65
2022-10-17T13:11:01.745Z,38.67
2022-10-17T13:13:49.530Z,38.74
2022-10-17T13:16:35.298Z,38.63
2022-10-17T13:19:13.963Z,38.78
2022-10-17T13:22:06.364Z,38.63
2022-10-17T13:24:41.155Z,38.51
2022-10-17T13:27:30.926Z,38.54
2022-10-17T13:30:02.162Z,38.74
2022-10-17T13:32:40.633Z,38.53
2022-10-17T13:35:22.034Z,38.51
2022-10-17T13:37:53.972Z,38.47
2022-10-17T13:40:44.599Z,38.23
2022-10-17T13:43:03.510Z,37.96
2022-10-17T13:45:34.765Z,37.76
2022-10-17T13:48:07.870Z,37.70
2022-10-17T13:50:44.648Z,37.81
2022-10-17T13:53:30.867Z,37.46
2022-10-17T13:56:27.395Z,37.79
2022-10-17T13:58:50.120Z,37.96
2022-10-17T14:01:20.251Z,38.01
2022-10-17T14:03:57.040Z,38.05
2022-10-17T14:06:27.671Z,38.02
2022-10-17T14:09:02.949Z,38.24
2022-10-17T14:11:43.891Z,38.44
2022-10-17T14:14:23.872Z,38.47
2022-10-17T14:16:53.555Z,38.60
2022-10-17T14:19:34.927Z,38.64
2022-10-17T14:22:26.446Z,38.91
2022-10-17T14:24:59.077Z,39.00
2022-10-17T14:27:37.661Z,39.14
2022-10-17T14:30:54.950Z,39.23
2022-10-17T14:33:07.115Z,39.43
2022-10-17T14:35:42.006Z,39.58
2022-10-17T14:38:10.731Z,39.81
2022-10-17T14:40:45.286Z,40.03
2022-10-17T14:43:16.501Z,40.29
2022-10-17T14:45:46.725Z,40.30
2022-10-17T14:48:22.772Z,40.65
2022-10-17T14:51:12.580Z,40.83
2022-10-17T14:53:44.877Z,41.23
2022-10-17T14:56:26.341Z,41.53
2022-10-17T14:58:56.021Z,41.72
2022-10-17T15:01:26.163Z,42.27
2022-10-17T15:03:57.642Z,42.65
2022-10-17T15:06:31.858Z,42.81
2022-10-17T15:09:04.509Z,43.15
2022-10-17T15:11:35.929Z,43.64
2022-10-17T15:14:05.790Z,44.24
2022-10-17T15:16:35.080Z,44.70
2022-10-17T15:19:08.109Z,44.81
2022-10-17T15:21:43.213Z,45.03
2022-10-17T15:24:10.609Z,45.18
2022-10-17T15:26:40.674Z,45.66
2022-10-17T15:29:15.755Z,46.23
2022-10-17T15:31:46.187Z,46.38
2022-10-17T15:34:16.472Z,46.45
2022-10-17T15:36:51.490Z,46.38
2022-10-17T15:39:20.845Z,46.63
2022-10-17T15:41:49.903Z,46.74
2022-10-17T15:44:19.396Z,46.96
2022-10-17T15:46:48.645Z,47.48
2022-10-17T15:49:19.695Z,47.54
2022-10-17T15:51:53.063Z,47.95
2022-10-17T15:54:21.755Z,48.22
2022-10-17T15:56:55.782Z,48.09
2022-10-17T15:59:30.285Z,47.65
2022-10-17T16:01:59.764Z,47.72
2022-10-17T16:04:30.410Z,47.92
2022-10-17T16:07:02.633Z,48.10
2022-10-17T16:09:36.853Z,48.39
2022-10-17T16:12:07.284Z,48.51
2022-10-17T16:14:37.912Z,48.32
2022-10-17T16:17:06.668Z,48.36
2022-10-17T16:19:36.108Z,48.12
2022-10-17T16:22:06.371Z,47.71
2022-10-17T16:24:35.765Z,47.96
2022-10-17T16:27:05.391Z,47.95
2022-10-17T16:29:35.072Z,47.70
2022-10-17T16:32:05.528Z,47.77
2022-10-17T16:34:36.662Z,48.22
2022-10-17T16:37:06.589Z,47.79
2022-10-17T16:39:36.944Z,47.77
2022-10-17T16:42:06.215Z,47.87
2022-10-17T16:44:37.022Z,47.86
2022-10-17T16:47:09.429Z,47.95
2022-10-17T16:49:42.927Z,48.30
2022-10-17T16:52:11.159Z,48.21
2022-10-17T16:54:41.215Z,48.41
2022-10-17T16:57:11.165Z,48.73
2022-10-17T16:59:40.829Z,48.59
2022-10-17T17:02:11.996Z,48.83
2022-10-17T17:04:42.165Z,48.91
2022-10-17T17:07:12.303Z,49.07
2022-10-17T17:09:42.831Z,49.40
2022-10-17T17:12:15.095Z,49.48
2022-10-17T17:14:44.514Z,49.80
2022-10-17T17:17:24.453Z,50.10
2022-10-17T17:19:47.905Z,50.13
2022-10-17T17:22:17.290Z,50.11
2022-10-17T17:24:47.235Z,50.04
2022-10-17T17:27:15.975Z,50.02
2022-10-17T17:29:45.136Z,49.33
2022-10-17T17:32:14.370Z,49.14
2022-10-17T17:34:43.136Z,48.79
2022-10-17T17:37:11.956Z,48.65
2022-10-17T17:39:40.621Z,49.12
2022-10-17T17:42:10.253Z,48.91
2022-10-17T17:44:38.950Z,48.54
2022-10-17T17:47:09.178Z,48.78
2022-10-17T17:49:38.631Z,49.04
2022-10-17T17:52:08.938Z,49.00
2022-10-17T17:54:40.787Z,48.52
2022-10-17T17:57:12.296Z,48.32
2022-10-17T17:59:42.566Z,48.11
2022-10-17T18:02:12.452Z,48.01
2022-10-17T18:04:42.415Z,47.77
2022-10-17T18:07:11.840Z,47.65
2022-10-17T18:09:42.089Z,47.40
2022-10-17T18:12:11.668Z,47.38
2022-10-17T18:14:42.520Z,47.46
2022-10-17T18:17:12.081Z,47.59
2022-10-17T18:19:42.666Z,47.86
2022-10-17T18:22:13.185Z,47.46
2022-10-17T18:24:42.965Z,47.29
2022-10-17T18:27:14.740Z,47.29
2022-10-17T18:29:48.453Z,47.10
2022-10-17T18:32:18.477Z,46.97
2022-10-17T18:34:47.940Z,46.95
2022-10-17T18:37:17.415Z,46.89
2022-10-17T18:39:49.526Z,46.83
2022-10-17T18:42:19.411Z,46.81
2022-10-17T18:44:50.196Z,46.79
2022-10-17T18:47:19.305Z,46.84
2022-10-17T18:49:48.569Z,47.01
2022-10-17T18:52:17.626Z,47.31
2022-10-17T18:54:46.516Z,47.25
2022-10-17T18:57:16.645Z,47.30
2022-10-17T18:59:46.638Z,47.26
2022-10-17T19:02:16.069Z,47.48
2022-10-17T19:04:46.474Z,47.69
2022-10-17T19:07:17.937Z,47.78
2022-10-17T19:09:49.781Z,48.12
2022-10-17T19:12:20.564Z,48.38
2022-10-17T19:14:50.627Z,48.45
2022-10-17T19:17:21.546Z,48.30
2022-10-17T19:19:51.945Z,48.72
2022-10-17T19:22:32.799Z,49.07
2022-10-17T19:25:03.151Z,49.42
2022-10-17T19:27:33.686Z,49.75
2022-10-17T19:30:03.359Z,50.17
2022-10-17T19:32:33.183Z,50.45
2022-10-17T19:35:03.731Z,50.42
2022-10-17T19:37:33.936Z,51.07
2022-10-17T19:40:03.487Z,51.05
2022-10-17T19:42:33.141Z,51.21
2022-10-17T19:45:02.296Z,51.62
2022-10-17T19:47:31.395Z,51.57
2022-10-17T19:50:00.396Z,51.43
2022-10-17T19:52:29.750Z,51.20
2022-10-17T19:54:58.751Z,51.44
2022-10-17T19:57:27.538Z,51.30
2022-10-17T19:59:57.150Z,51.84
2022-10-17T20:02:26.094Z,51.80
2022-10-17T20:05:13.854Z,51.64
2022-10-17T20:07:25.930Z,51.96
2022-10-17T20:09:55.615Z,51.96
2022-10-17T20:12:25.407Z,52.07
2022-10-17T20:14:55.783Z,52.22
2022-10-17T20:17:25.136Z,52.53
2022-10-17T20:19:53.744Z,52.83
2022-10-17T20:22:23.581Z,52.82
2022-10-17T20:24:52.603Z,52.97
2022-10-17T20:27:27.539Z,53.18
2022-10-17T20:29:54.491Z,53.36
2022-10-17T20:32:23.765Z,53.66
2022-10-17T20:34:53.112Z,53.93
2022-10-17T20:37:22.248Z,54.14
2022-10-17T20:40:04.929Z,54.21
2022-10-17T20:42:22.393Z,54.43
2022-10-17T20:44:51.820Z,54.54
2022-10-17T20:47:39.926Z,54.78
2022-10-17T20:49:51.565Z,54.87
2022-10-17T20:52:21.268Z,55.16
2022-10-17T20:54:51.077Z,55.30
2022-10-17T20:57:19.810Z,55.37
2022-10-17T20:59:48.795Z,55.45
2022-10-17T21:02:17.510Z,55.50
2022-10-17T21:04:49.569Z,56.04
2022-10-17T21:07:18.432Z,56.26
2022-10-17T21:09:47.370Z,56.33
2022-10-17T21:12:25.945Z,56.45
2022-10-17T21:14:47.922Z,56.46
2022-10-17T21:17:17.751Z,56.63
2022-10-17T21:19:47.225Z,56.60
2022-10-17T21:22:16.045Z,56.77
2022-10-17T21:24:44.900Z,56.87
2022-10-17T21:27:17.404Z,56.96
2022-10-17T21:29:48.385Z,56.97
2022-10-17T21:32:31.936Z,56.94
2022-10-17T21:34:48.166Z,57.03
2022-10-17T21:37:16.906Z,57.00
2022-10-17T21:39:45.651Z,57.20
2022-10-17T21:42:14.926Z,57.72
2022-10-17T21:44:44.286Z,57.66
2022-10-17T21:47:14.580Z,57.47
2022-10-17T21:49:43.205Z,57.14
2022-10-17T21:52:13.206Z,57.28
2022-10-17T21:54:42.936Z,57.32
2022-10-17T21:57:12.001Z,57.42
2022-10-17T21:59:41.271Z,57.59
2022-10-17T22:02:11.135Z,57.66
2022-10-17T22:04:39.890Z,57.62
2022-10-17T22:07:08.885Z,57.57
2022-10-17T22:09:38.486Z,57.70
2022-10-17T22:12:08.966Z,57.55
2022-10-17T22:14:39.555Z,57.50
2022-10-17T22:17:08.405Z,57.42
2022-10-17T22:19:37.580Z,57.47
2022-10-17T22:22:07.756Z,57.50
2022-10-17T22:24:37.013Z,57.46
2022-10-17T22:27:05.952Z,57.58
2022-10-17T22:29:36.630Z,57.54
2022-10-17T22:32:06.201Z,57.59
2022-10-17T22:34:35.406Z,57.65
2022-10-17T22:37:04.851Z,57.67
2022-10-17T22:39:33.659Z,57.80
2022-10-17T22:42:03.145Z,57.74
2022-10-17T22:44:32.431Z,57.79
2022-10-17T22:47:00.951Z,57.83
2022-10-17T22:49:32.177Z,57.80
2022-10-17T22:52:01.141Z,57.72
2022-10-17T22:54:30.346Z,57.91
2022-10-17T22:56:59.430Z,57.93
2022-10-17T22:59:28.396Z,58.01
2022-10-17T23:01:57.297Z,58.25
2022-10-17T23:04:27.016Z,58.21
2022-10-17T23:06:56.035Z,58.30
2022-10-17T23:11:55.648Z,58.59
2022-10-17T23:14:25.389Z,58.65
2022-10-17T23:16:54.357Z,58.71
2022-10-17T23:19:23.081Z,58.88
2022-10-17T23:21:53.372Z,59.02
2022-10-17T23:24:22.362Z,59.25
2022-10-17T23:26:51.361Z,59.55
2022-10-17T23:29:20.275Z,59.69
2022-10-17T23:31:55.451Z,59.69
2022-10-17T23:34:25.061Z,59.71
2022-10-17T23:36:54.338Z,59.78
2022-10-17T23:39:23.411Z,60.02
2022-10-17T23:41:52.471Z,60.17
2022-10-17T23:44:23.241Z,60.36
2022-10-17T23:46:52.431Z,60.38
2022-10-17T23:49:21.751Z,60.74
2022-10-17T23:51:50.591Z,60.73
2022-10-17T23:54:19.761Z,60.97
2022-10-17T23:56:50.331Z,61.03
2022-10-17T23:59:19.434Z,61.10
